Flight Track Log - Related Links

Times and Time Zones

All times are in EDT time to prevent confusion due to time zone crossing. See the SKW5649 flight status page for this flight to view local times or setup timezone preferences in your user account.

Time Position Orientation Groundspeed Altitude Reporting Facility
EDT Latitude Longitude Course Direction KTS MPH feet Rate Location/Type
Tue 06:22:39 PM 46.8800 -96.8422 215° Southwest 173 199 2,800  Level Minneapolis Center
Tue 06:23:41 PM 46.8392 -96.9144 230° Southwest 230 265 5,400 2,735 Climbing Minneapolis Center
Tue 06:24:00 PM 46.6664 -97.0671 215° Southwest  Level FlightAware Approximate
Tue 06:24:55 PM 46.7617 -96.9975 216° Southwest 270 311 9,000  Level Minneapolis Center
Tue 06:25:00 PM 46.5811 -97.1525 218° Southwest  Level FlightAware Approximate
Tue 06:25:57 PM 46.7164 -97.0872 234° Southwest 280 322 10,000  Level Minneapolis Center
Tue 06:26:00 PM 46.4993 -97.2446 218° Southwest  Level FlightAware Approximate
Tue 06:26:59 PM 46.6622 -97.1992 235° Southwest 320 368 12,000  Level Minneapolis Center
Tue 06:27:00 PM 46.4162 -97.3340 215° Southwest  Level FlightAware Approximate
Tue 06:28:01 PM 46.6183 -97.2942 236° Southwest 320 368 14,400  Level Minneapolis Center
Tue 06:29:03 PM 46.5358 -97.3981 221° Southwest 327 376 17,100 2,081 Climbing Minneapolis Center
Tue 06:30:05 PM 46.4711 -97.4736 219° Southwest 331 381 18,700 1,548 Climbing Minneapolis Center
Tue 06:31:07 PM 46.3975 -97.5567 218° Southwest 336 387 20,300 1,597 Climbing Minneapolis Center
Tue 06:32:09 PM 46.3064 -97.6617 219° Southwest 348 400 22,000 1,403 Climbing Minneapolis Center
Tue 06:33:11 PM 46.2297 -97.7492 218° Southwest 350 403 23,200 1,113 Climbing Minneapolis Center
Tue 06:34:13 PM 46.1506 -97.8378 218° Southwest 357 411 24,300 1,008 Climbing Minneapolis Center
Tue 06:35:16 PM 46.0700 -97.9278 218° Southwest 365 420 25,300 832 Climbing Minneapolis Center
Tue 06:36:30 PM 45.9892 -98.0203 219° Southwest 369 425 26,200 838 Climbing Minneapolis Center
Tue 06:37:32 PM 45.8867 -98.1364 218° Southwest 374 430 27,200 774 Climbing Minneapolis Center
Tue 06:38:34 PM 45.8039 -98.2294 218° Southwest 378 435 27,800 823 Climbing Minneapolis Center
Tue 06:39:36 PM 45.7031 -98.3414 218° Southwest 381 438 28,900 726 Climbing Minneapolis Center
Tue 06:40:38 PM 45.6189 -98.4331 217° Southwest 382 440 29,300 581 Climbing Minneapolis Center
Tue 06:41:40 PM 45.5350 -98.5278 218° Southwest 382 440 30,100 629 Climbing Minneapolis Center
Tue 06:42:42 PM 45.4667 -98.6028 218° Southwest 385 443 30,600 677 Climbing Minneapolis Center
Tue 06:43:44 PM 45.3678 -98.7119 218° Southwest 379 436 31,500 677 Climbing Minneapolis Center
Tue 06:44:46 PM 45.2856 -98.8017 218° Southwest 374 430 32,000 240 Climbing Minneapolis Center
Tue 06:45:49 PM 45.2028 -98.8914 217° Southwest 373 429 32,000  Level Minneapolis Center
Tue 06:46:51 PM 45.0992 -99.0044 218° Southwest 384 442 32,000  Level Minneapolis Center
Tue 06:47:53 PM 45.0111 -99.0986 217° Southwest 391 450 32,000  Level Minneapolis Center
Tue 06:48:55 PM 44.9247 -99.1911 217° Southwest 390 449 32,000  Level Minneapolis Center
Tue 06:49:57 PM 44.8381 -99.2842 217° Southwest 390 449 32,000  Level Minneapolis Center
Tue 06:50:59 PM 44.7517 -99.3758 217° Southwest 388 447 32,000  Level Minneapolis Center
Tue 06:52:01 PM 44.6653 -99.4678 217° Southwest 388 447 32,000  Level Minneapolis Center
Tue 06:53:03 PM 44.5783 -99.5586 217° Southwest 388 447 32,000  Level Minneapolis Center
Tue 06:54:05 PM 44.4731 -99.6700 217° Southwest 391 450 32,000  Level Minneapolis Center
Tue 06:55:07 PM 44.3850 -99.7619 217° Southwest 393 452 32,000  Level Minneapolis Center
Tue 06:56:09 PM 44.2961 -99.8556 217° Southwest 397 457 32,000  Level Minneapolis Center
Tue 06:57:11 PM 44.2069 -99.9489 217° Southwest 399 459 32,000  Level Minneapolis Center
Tue 06:58:13 PM 44.1175 -100.0411 217° Southwest 399 459 32,000  Level Minneapolis Center
Tue 06:59:15 PM 44.0278 -100.1322 216° Southwest 398 458 32,000  Level Minneapolis Center
Tue 07:00:17 PM 43.9383 -100.2253 217° Southwest 401 461 32,000  Level Minneapolis Center
Tue 07:01:19 PM 43.8314 -100.3356 217° Southwest 399 459 32,000  Level Minneapolis Center
Tue 07:02:22 PM 43.7408 -100.4256 216° Southwest 400 460 32,000  Level Minneapolis Center
Tue 07:03:24 PM 43.6506 -100.5178 216° Southwest 402 463 32,000  Level Minneapolis Center
Tue 07:04:26 PM 43.5600 -100.6106 217° Southwest 404 465 32,000  Level Minneapolis Center
Tue 07:05:28 PM 43.4697 -100.7017 216° Southwest 403 464 32,000  Level Minneapolis Center
Tue 07:06:30 PM 43.3797 -100.7931 216° Southwest 403 464 32,000  Level Minneapolis Center
Tue 07:07:32 PM 43.2708 -100.9017 216° Southwest 403 464 32,000  Level Minneapolis Center
Tue 07:08:33 PM 43.1986 -100.9744 216° Southwest 402 463 32,000  Level Minneapolis Center
Tue 07:09:36 PM 43.0889 -101.0828 216° Southwest 404 465 32,000  Level Minneapolis Center
Tue 07:10:38 PM 42.9978 -101.1731 216° Southwest 405 466 32,000  Level Minneapolis Center
Tue 07:11:40 PM 42.9064 -101.2622 216° Southwest 404 465 32,000  Level Minneapolis Center
Tue 07:12:42 PM 42.8156 -101.3506 216° Southwest 402 463 32,000  Level Minneapolis Center
Tue 07:13:44 PM 42.7069 -101.4575 216° Southwest 402 463 32,000  Level Minneapolis Center
Tue 07:14:57 PM 42.6067 -101.5575 216° Southwest 404 465 32,000  Level Denver Center
Tue 07:15:59 PM 42.5028 -101.6572 215° Southwest 408 470 32,000  Level Denver Center
Tue 07:17:01 PM 42.4158 -101.7414 216° Southwest 404 465 32,000  Level Denver Center
Tue 07:18:03 PM 42.3106 -101.8419 215° Southwest 409 471 32,000  Level Denver Center
Tue 07:19:05 PM 42.2250 -101.9242 215° Southwest 406 467 32,000  Level Denver Center
Tue 07:20:07 PM 42.1219 -102.0222 215° Southwest 406 467 32,000  Level Denver Center
Tue 07:21:09 PM 42.0339 -102.1053 215° Southwest 406 467 32,000  Level Denver Center
Tue 07:22:11 PM 41.9308 -102.2036 215° Southwest 406 467 32,000  Level Denver Center
Tue 07:23:13 PM 41.8383 -102.2903 215° Southwest 408 470 32,000  Level Denver Center
Tue 07:24:14 PM 41.7661 -102.3594 216° Southwest 402 463 32,000  Level Denver Center
Tue 07:25:16 PM 41.6506 -102.4664 215° Southwest 408 470 32,000  Level Denver Center
Tue 07:26:18 PM 41.5633 -102.5481 215° Southwest 403 464 32,000  Level Denver Center
Tue 07:27:20 PM 41.4556 -102.6489 215° Southwest 406 467 32,000  Level Denver Center
Tue 07:28:34 PM 41.3742 -102.7428 221° Southwest 404 465 32,000  Level Denver Center
Tue 07:29:36 PM 41.2972 -102.8414 224° Southwest 401 461 32,000  Level Denver Center
Tue 07:30:39 PM 41.1856 -102.9811 223° Southwest 401 461 32,000  Level Denver Center
Tue 07:31:41 PM 41.1006 -103.0861 223° Southwest 408 470 32,000  Level Denver Center
Tue 07:32:43 PM 41.0222 -103.1836 223° Southwest 405 466 32,000  Level Denver Center
Tue 07:33:45 PM 40.9369 -103.2911 224° Southwest 407 468 32,000 -484 Level Denver Center
Tue 07:34:47 PM 40.8539 -103.3953 224° Southwest 407 468 31,000 -1,790 Descending Denver Center
Tue 07:35:49 PM 40.7728 -103.4953 223° Southwest 397 457 28,300 -2,294 Descending Denver Center
Tue 07:37:03 PM 40.6919 -103.5936 223° Southwest 391 450 25,800 -2,559 Descending Denver Center
Tue 07:38:05 PM 40.5831 -103.7267 223° Southwest 400 460 22,500 -2,855 Descending Denver Center
Tue 07:39:07 PM 40.4983 -103.8306 223° Southwest 411 473 19,900 -2,129 Descending Denver Center
Tue 07:40:09 PM 40.4147 -103.9325 223° Southwest 376 433 18,100 -1,210 Descending Denver Center
Tue 07:41:11 PM 40.3436 -104.0050 218° Southwest 319 367 17,400 -1,161 Descending Denver Center
Tue 07:42:13 PM 40.2656 -104.0725 213° Southwest 312 359 15,700 -1,500 Descending Denver Center
Tue 07:43:15 PM 40.2319 -104.1600 243° Southwest 281 323 14,300 -1,355 Descending Denver Center
Tue 07:44:17 PM 40.2392 -104.2594 275° West 256 295 12,900 -1,500 Descending Denver Center
Tue 07:45:19 PM 40.2250 -104.3497 258° West 254 292 11,200 -1,403 Descending Denver Center
Tue 07:46:21 PM 40.1983 -104.4417 249° West 255 293 10,000 -968 Descending Denver Center
Tue 07:47:23 PM 40.1431 -104.5014 220° Southwest 259 298 9,200 -821 Descending Denver Center
Tue 07:47:56 PM 40.1167 -104.5333 223° Southwest 255 293 8,700 -839 Descending Denver TRACON
Tue 07:48:56 PM 40.0667 -104.6000 226° Southwest 245 282 7,900 -800 Descending Denver TRACON

Login

Don't have an account? Register now (free) for customized features, flight alerts, and more!